Time;durP1;ratioP1;P1;durP2;ratioP2;P2;SDS_P1;SDS_P2;PMS_P1;PMS_P2;Temp;Humidity;BMP_temperature;BMP_pressure;BME280_temperature;BME280_humidity;BME280_pressure;Samples;Min_cycle;Max_cycle;Signal;HPM_P1;HPM_P2
2023/12/04 00:01:15;;;;;;;19.60;9.57;;;-5.70;99.90;;;;;;5074648;28;20021;-64
2023/12/04 00:03:41;;;;;;;25.88;11.20;;;-5.80;99.90;;;;;;5072880;28;20077;-64
2023/12/04 00:06:07;;;;;;;21.25;10.95;;;-5.80;99.90;;;;;;5074295;28;20032;-64
2023/12/04 00:08:32;;;;;;;20.63;10.68;;;-5.80;99.90;;;;;;5073961;28;20108;-64
2023/12/04 00:10:58;;;;;;;21.35;11.23;;;-3.50;99.90;;;;;;5074508;28;20025;-64
2023/12/04 00:13:24;;;;;;;22.75;10.82;;;-5.90;99.90;;;;;;5072660;28;20048;-65
2023/12/04 00:15:50;;;;;;;23.88;10.35;;;-5.90;99.90;;;;;;5073878;28;20056;-69
2023/12/04 00:18:15;;;;;;;21.33;11.45;;;-6.00;99.90;;;;;;5072591;28;20043;-64
2023/12/04 00:20:41;;;;;;;23.70;10.77;;;-6.00;99.90;;;;;;5073993;28;20021;-64
2023/12/04 00:23:07;;;;;;;22.85;10.35;;;-6.00;99.90;;;;;;5073793;28;20020;-64
2023/12/04 00:25:32;;;;;;;25.63;10.73;;;-6.00;99.90;;;;;;5071301;28;20051;-64
2023/12/04 00:27:58;;;;;;;20.27;9.88;;;-6.10;99.90;;;;;;5073380;28;20035;-64
2023/12/04 00:30:23;;;;;;;18.77;9.98;;;-6.10;99.90;;;;;;5074361;28;20021;-64
2023/12/04 00:32:49;;;;;;;19.23;10.13;;;-6.10;99.90;;;;;;5072544;28;20134;-64
2023/12/04 00:35:14;;;;;;;20.90;9.98;;;-6.20;99.90;;;;;;5073470;28;20472;-64
2023/12/04 00:37:40;;;;;;;21.52;9.98;;;-6.20;99.90;;;;;;5074013;28;20451;-64
2023/12/04 00:40:07;;;;;;;17.90;9.82;;;-6.20;99.90;;;;;;5072245;28;20127;-64
2023/12/04 00:42:33;;;;;;;21.08;9.77;;;-6.30;99.90;;;;;;5073799;28;20021;-64
2023/12/04 00:44:59;;;;;;;18.08;8.57;;;-6.40;99.90;;;;;;5074524;28;20063;-64
2023/12/04 00:47:24;;;;;;;19.67;9.10;;;-6.40;99.90;;;;;;5075043;28;20047;-64
2023/12/04 00:49:50;;;;;;;16.58;8.88;;;-6.50;99.90;;;;;;5073275;28;20460;-64
2023/12/04 00:52:15;;;;;;;19.70;8.95;;;-6.50;99.90;;;;;;5073645;28;20028;-64
2023/12/04 00:54:41;;;;;;;18.80;9.00;;;-6.60;99.90;;;;;;5073742;28;20024;-64
2023/12/04 00:57:07;;;;;;;20.88;9.60;;;-6.60;99.90;;;;;;5072303;28;20016;-64
2023/12/04 00:59:33;;;;;;;18.88;9.45;;;-5.10;99.90;;;;;;5073523;28;20032;-64
2023/12/04 01:01:59;;;;;;;20.05;9.30;;;-5.20;99.90;;;;;;5073209;28;20020;-64
2023/12/04 01:04:24;;;;;;;19.10;8.73;;;-6.60;99.90;;;;;;5073194;28;20032;-64
2023/12/04 01:06:50;;;;;;;18.10;9.07;;;;;;;;;;5072095;28;20098;-64
2023/12/04 01:09:16;;;;;;;20.33;9.30;;;-6.60;99.90;;;;;;5073179;28;20108;-64
2023/12/04 01:11:41;;;;;;;19.80;10.00;;;-6.70;99.90;;;;;;5073079;28;20103;-64
2023/12/04 01:14:07;;;;;;;19.55;9.07;;;-6.80;99.90;;;;;;5073118;28;20452;-64
2023/12/04 01:16:33;;;;;;;17.83;8.88;;;-6.90;99.90;;;;;;5073326;28;20041;-65
2023/12/04 01:18:59;;;;;;;20.58;8.80;;;-6.90;99.90;;;;;;5073567;28;20437;-64
2023/12/04 01:21:24;;;;;;;20.88;9.02;;;-6.90;99.90;;;;;;5073752;28;20468;-64
2023/12/04 01:23:50;;;;;;;18.33;9.63;;;-6.90;99.90;;;;;;5072490;28;20107;-64
2023/12/04 01:26:16;;;;;;;20.17;9.23;;;-7.00;99.90;;;;;;5073326;28;20017;-64
2023/12/04 01:28:41;;;;;;;17.95;8.43;;;-7.00;99.90;;;;;;5072869;28;20032;-64
2023/12/04 01:31:07;;;;;;;16.90;7.85;;;-7.10;99.90;;;;;;5073185;28;20028;-64
2023/12/04 01:33:32;;;;;;;20.10;8.93;;;-7.10;99.90;;;;;;5073645;28;20366;-64
2023/12/04 01:35:58;;;;;;;15.75;7.38;;;-7.10;99.90;;;;;;5073116;28;20380;-64
2023/12/04 01:38:24;;;;;;;18.92;8.00;;;-7.10;99.90;;;;;;5076090;28;20021;-64
2023/12/04 01:40:49;;;;;;;17.23;8.05;;;-7.20;99.90;;;;;;5056871;28;20025;-64
2023/12/04 01:43:15;;;;;;;15.48;8.05;;;-5.60;99.90;;;;;;5057145;28;20028;-64
2023/12/04 01:45:41;;;;;;;17.27;8.82;;;-7.30;99.90;;;;;;5038921;28;20453;-64
2023/12/04 01:48:08;;;;;;;18.38;8.27;;;-7.30;99.90;;;;;;5056588;28;20033;-64
2023/12/04 01:50:35;;;;;;;19.42;9.35;;;-7.40;99.90;;;;;;5056577;28;20032;-64
2023/12/04 01:53:01;;;;;;;21.40;9.13;;;-7.40;99.90;;;;;;5056539;28;20057;-64
2023/12/04 01:55:29;;;;;;;23.52;9.35;;;-7.40;99.90;;;;;;5056458;28;20016;-64
2023/12/04 01:57:56;;;;;;;17.63;8.30;;;-7.40;99.90;;;;;;5056116;28;20407;-64
2023/12/04 02:00:21;;;;;;;18.55;8.63;;;-7.40;99.90;;;;;;5056336;28;20024;-64
2023/12/04 02:02:47;;;;;;;18.75;8.48;;;-7.50;99.90;;;;;;5056574;28;20021;-64
2023/12/04 02:05:14;;;;;;;18.83;9.52;;;-7.50;99.90;;;;;;5056263;28;20024;-64
2023/12/04 02:07:43;;;;;;;18.10;8.63;;;-7.50;99.90;;;;;;5056419;28;20029;-64
2023/12/04 02:10:09;;;;;;;20.73;9.50;;;-7.50;99.90;;;;;;5056172;28;20108;-64
2023/12/04 02:12:35;;;;;;;24.08;10.07;;;-7.50;99.90;;;;;;5038276;28;20520;-64
2023/12/04 02:15:00;;;;;;;16.27;8.25;;;-5.80;99.90;;;;;;5056047;28;20028;-64
2023/12/04 02:17:27;;;;;;;18.65;8.77;;;-7.60;99.90;;;;;;5056303;28;20120;-64
2023/12/04 02:19:54;;;;;;;20.05;9.32;;;-7.70;99.90;;;;;;5055915;28;20025;-64
2023/12/04 02:22:20;;;;;;;17.95;8.85;;;-7.70;99.90;;;;;;5055941;28;20028;-64
2023/12/04 02:24:48;;;;;;;14.95;7.63;;;-7.80;99.90;;;;;;5055785;28;20029;-64
2023/12/04 02:27:20;;;;;;;;;;;-7.80;99.90;;;;;;5055897;28;20063;-64
2023/12/04 02:29:56;;;;;;;20.98;8.15;;;-7.80;99.90;;;;;;5055889;28;19905;-64
2023/12/04 02:32:23;;;;;;;17.90;8.73;;;-7.80;99.90;;;;;;5055785;28;20048;-65
2023/12/04 02:34:49;;;;;;;19.55;9.35;;;-7.90;99.90;;;;;;5055646;28;20017;-65
2023/12/04 02:37:16;;;;;;;19.63;8.85;;;-7.90;99.90;;;;;;5056116;28;20024;-64
2023/12/04 02:39:43;;;;;;;16.27;8.45;;;-8.00;99.90;;;;;;5055946;28;20044;-64
2023/12/04 02:42:08;;;;;;;17.23;7.53;;;-8.00;99.90;;;;;;5037651;28;20469;-64
2023/12/04 02:44:34;;;;;;;16.65;8.77;;;-8.00;99.90;;;;;;5037575;28;20067;-64
2023/12/04 02:47:00;;;;;;;16.15;8.05;;;-8.00;99.90;;;;;;5054916;28;20020;-64
2023/12/04 02:49:26;;;;;;;18.77;8.88;;;-8.00;99.90;;;;;;5037314;28;20025;-64
2023/12/04 02:51:51;;;;;;;17.02;7.80;;;-8.10;99.90;;;;;;5055408;28;20108;-64
2023/12/04 02:54:17;;;;;;;21.67;8.07;;;-8.10;99.90;;;;;;5055337;28;20017;-64
2023/12/04 02:56:43;;;;;;;14.75;7.88;;;-8.10;99.90;;;;;;5037317;28;20109;-64
2023/12/04 02:59:08;;;;;;;15.15;7.55;;;-8.20;99.90;;;;;;5055229;28;20025;-64
2023/12/04 03:01:34;;;;;;;28.45;8.73;;;-8.20;99.90;;;;;;5055469;28;20021;-64
2023/12/04 03:04:00;;;;;;;20.33;8.52;;;-8.20;99.90;;;;;;5055245;28;20025;-64
2023/12/04 03:06:26;;;;;;;21.80;9.52;;;-8.20;99.90;;;;;;5055051;28;20487;-65
2023/12/04 03:08:51;;;;;;;17.92;8.30;;;-8.20;99.90;;;;;;5054976;28;20518;-65
2023/12/04 03:11:17;;;;;;;20.58;8.90;;;-8.20;99.90;;;;;;5037127;28;20031;-64
2023/12/04 03:13:42;;;;;;;22.55;8.43;;;-8.20;99.90;;;;;;5055094;28;20507;-65
2023/12/04 03:16:18;;;;;;;17.98;8.27;;;-8.20;99.90;;;;;;5037608;28;20121;-64
2023/12/04 03:18:44;;;;;;;20.50;8.10;;;-8.30;99.90;;;;;;5057985;28;20029;-64
2023/12/04 03:21:10;;;;;;;20.60;8.80;;;-8.30;99.90;;;;;;5057668;28;20338;-65
2023/12/04 03:23:36;;;;;;;17.40;8.02;;;-8.40;99.90;;;;;;5057785;28;20059;-65
2023/12/04 03:26:02;;;;;;;17.98;8.90;;;-8.40;99.90;;;;;;5057227;28;20025;-65
2023/12/04 03:28:28;;;;;;;19.98;8.55;;;-8.40;99.90;;;;;;5055521;28;20029;-65
2023/12/04 03:30:53;;;;;;;16.98;7.88;;;-8.50;99.90;;;;;;5037845;28;20091;-65
2023/12/04 03:33:19;;;;;;;16.63;8.15;;;-6.90;99.90;;;;;;5054612;28;20027;-64
2023/12/04 03:35:45;;;;;;;16.92;7.88;;;-8.50;99.90;;;;;;5036790;28;20032;-65
2023/12/04 03:38:10;;;;;;;18.80;8.35;;;-8.50;99.90;;;;;;5036776;28;20532;-65
2023/12/04 03:40:36;;;;;;;19.75;8.52;;;-8.60;99.90;;;;;;5071311;28;20070;-65
2023/12/04 03:43:02;;;;;;;17.83;7.43;;;-8.60;99.90;;;;;;5075214;28;20437;-65
2023/12/04 03:45:27;;;;;;;16.70;7.57;;;-8.60;99.90;;;;;;5073545;28;20093;-65
2023/12/04 03:47:53;;;;;;;19.42;8.10;;;-8.60;99.90;;;;;;5074300;28;20122;-64
2023/12/04 03:50:19;;;;;;;14.48;6.95;;;-8.70;99.90;;;;;;5074382;28;20024;-65
2023/12/04 03:52:44;;;;;;;14.70;7.50;;;-8.70;99.90;;;;;;5073301;28;20029;-65
2023/12/04 03:55:10;;;;;;;19.40;6.93;;;-8.70;99.90;;;;;;5072898;28;20052;-64
2023/12/04 03:57:36;;;;;;;19.92;8.32;;;-8.70;99.90;;;;;;5074152;28;20066;-65
2023/12/04 04:00:01;;;;;;;13.88;7.20;;;-8.80;99.90;;;;;;5073350;28;20381;-65
2023/12/04 04:02:28;;;;;;;15.95;7.63;;;-8.70;99.90;;;;;;5073808;28;20453;-64
2023/12/04 04:04:53;;;;;;;21.52;8.27;;;-8.70;99.90;;;;;;5073762;28;20028;-64
2023/12/04 04:07:20;;;;;;;20.25;7.22;;;-8.80;99.90;;;;;;5072801;28;20518;-65
2023/12/04 04:09:45;;;;;;;15.20;7.40;;;-8.70;99.90;;;;;;5073728;28;20475;-65
2023/12/04 04:12:11;;;;;;;17.25;7.55;;;-8.70;99.90;;;;;;5073762;28;20024;-64
2023/12/04 04:14:37;;;;;;;20.67;8.10;;;-8.70;99.90;;;;;;5072779;28;20016;-64
2023/12/04 04:17:03;;;;;;;23.48;8.15;;;-8.80;99.90;;;;;;5074088;28;20032;-64
2023/12/04 04:19:29;;;;;;;19.88;8.77;;;-8.80;99.90;;;;;;5073916;28;20413;-64
2023/12/04 04:21:54;;;;;;;24.40;8.85;;;-8.80;99.90;;;;;;5072790;28;20088;-64
2023/12/04 04:24:20;;;;;;;19.23;8.70;;;-8.70;99.90;;;;;;5074189;28;20372;-67
2023/12/04 04:26:46;;;;;;;18.15;8.25;;;-8.80;99.90;;;;;;5080585;28;20031;-65
2023/12/04 04:29:11;;;;;;;17.48;8.35;;;-8.80;99.90;;;;;;5081731;28;20029;-65
2023/12/04 04:31:37;;;;;;;14.73;8.13;;;-8.80;99.90;;;;;;5078323;28;20432;-65
2023/12/04 04:34:03;;;;;;;17.23;7.72;;;-8.80;99.90;;;;;;5073138;28;20059;-65
2023/12/04 04:36:29;;;;;;;20.83;7.25;;;-8.80;99.90;;;;;;5073733;28;20465;-64
2023/12/04 04:38:54;;;;;;;16.67;7.75;;;-8.80;99.90;;;;;;5073111;28;20357;-64
2023/12/04 04:41:20;;;;;;;15.63;7.68;;;-8.80;99.90;;;;;;5072815;28;20031;-64
2023/12/04 04:43:46;;;;;;;17.70;9.20;;;-8.90;99.90;;;;;;5073695;28;20021;-65
2023/12/04 04:46:11;;;;;;;17.02;7.72;;;-9.00;99.90;;;;;;5073661;28;20066;-64
2023/12/04 04:48:37;;;;;;;16.50;7.63;;;-9.10;99.90;;;;;;5073527;28;20107;-64
2023/12/04 04:51:03;;;;;;;19.08;8.32;;;-9.00;99.90;;;;;;5073408;28;20024;-64
2023/12/04 04:53:29;;;;;;;17.45;7.88;;;-9.10;99.90;;;;;;5073856;28;20095;-64
2023/12/04 04:55:54;;;;;;;21.17;7.38;;;-9.10;99.90;;;;;;5072433;28;20097;-65
2023/12/04 04:58:20;;;;;;;15.80;7.45;;;-8.80;99.90;;;;;;5073628;28;20020;-64
2023/12/04 05:00:47;;;;;;;20.50;8.05;;;-9.00;99.90;;;;;;5073283;28;20017;-64
2023/12/04 05:03:12;;;;;;;15.35;7.38;;;-9.00;99.90;;;;;;5073599;28;20020;-64
2023/12/04 05:05:38;;;;;;;18.00;6.97;;;-9.10;99.90;;;;;;5072199;28;20387;-64
2023/12/04 05:08:04;;;;;;;15.27;7.10;;;-9.20;99.90;;;;;;5073273;28;20427;-65
2023/12/04 05:10:29;;;;;;;14.93;6.50;;;-8.30;99.90;;;;;;5073621;28;20047;-65
2023/12/04 05:12:55;;;;;;;17.42;6.93;;;-9.10;99.90;;;;;;5077248;28;20100;-64
2023/12/04 05:15:21;;;;;;;21.52;6.97;;;-9.10;99.90;;;;;;5077329;28;20025;-64
2023/12/04 05:17:47;;;;;;;16.80;6.88;;;-9.10;99.90;;;;;;5077057;28;20028;-64
2023/12/04 05:20:12;;;;;;;14.90;7.35;;;-9.20;99.90;;;;;;5076869;28;20024;-65
2023/12/04 05:22:38;;;;;;;15.68;7.10;;;-9.20;99.90;;;;;;5075937;28;20112;-64
2023/12/04 05:25:04;;;;;;;14.63;7.40;;;-9.20;99.90;;;;;;5075734;28;20043;-65
2023/12/04 05:27:30;;;;;;;15.57;7.47;;;-9.30;99.90;;;;;;5077159;28;20164;-65
2023/12/04 05:29:55;;;;;;;18.35;8.38;;;-9.20;99.90;;;;;;5075606;28;20074;-64
2023/12/04 05:32:21;;;;;;;19.00;7.97;;;-9.20;99.90;;;;;;5076567;28;20017;-65
2023/12/04 05:34:47;;;;;;;14.02;6.93;;;-9.20;99.90;;;;;;5075542;28;20021;-64
2023/12/04 05:37:12;;;;;;;15.30;6.78;;;-9.10;99.90;;;;;;5075478;28;20048;-65
2023/12/04 05:39:38;;;;;;;16.58;6.95;;;-9.10;99.90;;;;;;5075242;28;20098;-64
2023/12/04 05:42:04;;;;;;;17.30;7.75;;;-9.10;99.90;;;;;;5075352;28;20368;-65
2023/12/04 05:44:30;;;;;;;12.75;6.38;;;-9.10;99.90;;;;;;5075327;28;20027;-64
2023/12/04 05:46:56;;;;;;;15.40;6.80;;;-9.10;99.90;;;;;;5076179;28;20031;-64
2023/12/04 05:49:21;;;;;;;16.35;7.05;;;-9.10;99.90;;;;;;5076266;28;20032;-64
2023/12/04 05:51:47;;;;;;;13.82;7.05;;;-9.10;99.90;;;;;;5075466;28;20032;-64
2023/12/04 05:54:13;;;;;;;15.02;7.32;;;-9.10;99.90;;;;;;5076059;28;20032;-64
2023/12/04 05:56:38;;;;;;;20.83;8.10;;;-9.10;99.90;;;;;;5076752;28;20456;-64
2023/12/04 05:59:04;;;;;;;18.75;8.20;;;-9.10;99.90;;;;;;5075154;28;20475;-64
2023/12/04 06:01:29;;;;;;;16.67;6.97;;;-9.10;99.90;;;;;;5076510;28;20352;-64
2023/12/04 06:03:55;;;;;;;16.92;7.55;;;-9.10;99.90;;;;;;5076381;28;20027;-64
2023/12/04 06:06:21;;;;;;;18.88;7.45;;;-9.20;99.90;;;;;;5076439;28;20518;-65
2023/12/04 06:08:46;;;;;;;19.27;7.80;;;-9.20;99.90;;;;;;5076306;28;20040;-64
2023/12/04 06:11:12;;;;;;;18.58;8.18;;;-9.20;99.90;;;;;;5078439;28;20345;-65
2023/12/04 06:13:37;;;;;;;21.23;7.78;;;-9.20;99.90;;;;;;5076469;28;20020;-64
2023/12/04 06:16:03;;;;;;;20.42;8.88;;;-9.20;99.90;;;;;;5074689;28;20440;-64
2023/12/04 06:18:29;;;;;;;16.30;7.60;;;-9.20;99.90;;;;;;5076082;28;20035;-65
2023/12/04 06:20:55;;;;;;;17.77;7.80;;;-9.20;99.90;;;;;;5075722;28;20103;-64
2023/12/04 06:23:20;;;;;;;15.43;7.22;;;-9.20;99.90;;;;;;5076271;28;20093;-64
2023/12/04 06:25:46;;;;;;;17.52;6.75;;;-9.20;99.90;;;;;;5075537;28;20082;-69
2023/12/04 06:28:12;;;;;;;18.85;7.93;;;-9.20;99.90;;;;;;5075943;28;20050;-64
2023/12/04 06:30:38;;;;;;;14.65;6.70;;;-9.20;99.90;;;;;;5074724;28;20028;-64
2023/12/04 06:33:04;;;;;;;15.23;7.25;;;-9.10;99.90;;;;;;5075818;28;20368;-64
2023/12/04 06:35:30;;;;;;;13.77;7.43;;;-9.10;99.90;;;;;;5074554;28;20024;-64
2023/12/04 06:38:07;;;;;;;17.40;7.55;;;-9.10;99.90;;;;;;5074390;28;20060;-64
2023/12/04 06:40:34;;;;;;;15.30;7.88;;;-9.10;99.90;;;;;;5074253;28;20052;-64
2023/12/04 06:43:00;;;;;;;18.08;8.35;;;-9.10;99.90;;;;;;5075307;28;20027;-64
2023/12/04 06:45:27;;;;;;;19.52;8.05;;;-9.10;99.90;;;;;;5075580;28;20033;-64
2023/12/04 06:47:54;;;;;;;27.65;7.40;;;-9.00;99.90;;;;;;5073880;28;20067;-64
2023/12/04 06:50:20;;;;;;;15.95;8.02;;;-9.00;99.90;;;;;;5074007;28;20346;-64
2023/12/04 06:52:45;;;;;;;15.50;8.25;;;-9.00;99.90;;;;;;5075252;28;20031;-64
2023/12/04 06:55:12;;;;;;;14.70;7.90;;;-9.00;99.90;;;;;;5073789;28;20410;-64
2023/12/04 06:57:38;;;;;;;14.07;7.32;;;-9.00;99.90;;;;;;5075157;28;20406;-65
2023/12/04 07:00:06;;;;;;;22.70;10.40;;;-9.00;99.90;;;;;;5073897;28;20017;-65
2023/12/04 07:02:32;;;;;;;29.15;11.10;;;-8.90;99.90;;;;;;5073937;28;20025;-64
2023/12/04 07:04:57;;;;;;;22.30;10.50;;;-8.90;99.90;;;;;;5074935;28;20115;-64
2023/12/04 07:07:23;;;;;;;25.02;10.60;;;-8.80;99.90;;;;;;5074617;28;20078;-69
2023/12/04 08:33:31;;;;;;;24.42;14.20;;;0.10;99.90;;;;;;5152895;27;20319;-64
2023/12/04 08:35:56;;;;;;;20.77;13.07;;;0.70;99.90;;;;;;5132314;28;20111;-65
2023/12/04 08:38:22;;;;;;;21.98;12.95;;;1.20;99.90;;;;;;5132173;28;20034;-64
2023/12/04 08:40:48;;;;;;;18.13;11.48;;;1.80;99.90;;;;;;5132127;28;20040;-65
2023/12/04 08:43:13;;;;;;;20.77;11.90;;;2.10;99.90;;;;;;5113689;28;20470;-65
2023/12/04 08:45:39;;;;;;;20.90;12.38;;;2.20;99.90;;;;;;5132281;28;20059;-64
2023/12/04 08:48:05;;;;;;;20.00;12.18;;;2.30;99.90;;;;;;5132083;28;20111;-64
2023/12/04 08:50:30;;;;;;;19.05;12.13;;;2.20;99.90;;;;;;5132444;28;20073;-64
2023/12/04 08:52:57;;;;;;;20.10;11.85;;;2.20;99.90;;;;;;5131659;28;20023;-63
2023/12/04 08:55:22;;;;;;;20.13;12.70;;;1.90;99.90;;;;;;5132218;28;20020;-64
2023/12/04 08:57:48;;;;;;;19.75;11.85;;;1.60;99.90;;;;;;5113184;28;20433;-64
2023/12/04 09:00:14;;;;;;;16.00;9.68;;;1.20;99.90;;;;;;5131831;28;20031;-64
2023/12/04 09:02:40;;;;;;;22.20;12.45;;;1.10;99.90;;;;;;5113860;28;20079;-67
2023/12/04 09:05:05;;;;;;;14.85;9.65;;;1.00;99.90;;;;;;5113900;28;20090;-64
2023/12/04 09:07:31;;;;;;;19.20;10.63;;;1.40;99.90;;;;;;5132237;28;20030;-65
2023/12/04 09:09:57;;;;;;;16.38;9.77;;;1.20;99.90;;;;;;5131495;28;20027;-65
2023/12/04 09:12:22;;;;;;;16.65;10.38;;;1.10;99.90;;;;;;5131705;28;20023;-64
2023/12/04 09:14:48;;;;;;;16.77;10.40;;;0.60;99.90;;;;;;5132380;28;20429;-64
2023/12/04 09:17:16;;;;;;;15.55;9.38;;;0.10;99.90;;;;;;5131027;28;20030;-64
2023/12/04 09:19:41;;;;;;;14.40;8.52;;;0.00;99.90;;;;;;5131362;27;20047;-64
2023/12/04 09:22:08;;;;;;;14.50;8.73;;;-0.20;99.90;;;;;;5130772;28;20379;-64
2023/12/04 09:24:34;;;;;;;15.35;8.75;;;-0.70;99.90;;;;;;5131030;28;20028;-64
2023/12/04 09:26:59;;;;;;;16.40;9.93;;;-1.00;99.90;;;;;;5131036;28;20092;-65
2023/12/04 09:29:25;;;;;;;18.30;10.88;;;-0.90;99.90;;;;;;5112348;28;20114;-64
2023/12/04 09:31:51;;;;;;;20.52;11.68;;;-0.90;99.90;;;;;;5130904;28;20051;-64
2023/12/04 09:34:18;;;;;;;18.30;11.38;;;-0.90;99.90;;;;;;5118271;28;20020;-64
2023/12/04 09:36:43;;;;;;;17.52;11.52;;;-1.10;99.90;;;;;;5117267;28;20031;-64
2023/12/04 09:39:10;;;;;;;19.42;10.75;;;-1.30;99.90;;;;;;5098835;28;20028;-64
2023/12/04 09:41:37;;;;;;;21.48;11.23;;;-1.50;99.90;;;;;;5116792;28;20027;-64
2023/12/04 09:44:03;;;;;;;26.77;12.45;;;-1.70;99.90;;;;;;5116968;28;20027;-64
2023/12/04 09:46:29;;;;;;;23.60;12.18;;;-1.90;99.90;;;;;;5117082;28;20325;-64
2023/12/04 09:48:56;;;;;;;21.23;11.63;;;-2.00;99.90;;;;;;5116636;28;20028;-64
2023/12/04 09:51:23;;;;;;;19.00;10.82;;;-2.20;99.90;;;;;;5098597;28;20031;-64
2023/12/04 09:53:49;;;;;;;20.90;11.07;;;-2.40;99.90;;;;;;5116944;28;20031;-64
2023/12/04 09:56:17;;;;;;;20.65;11.82;;;-2.60;99.90;;;;;;5116993;28;20032;-64
2023/12/04 09:58:44;;;;;;;19.52;11.40;;;-2.60;99.90;;;;;;5116718;28;20494;-64
2023/12/04 10:01:11;;;;;;;21.63;11.80;;;-2.80;99.90;;;;;;5098288;28;20060;-64
2023/12/04 10:03:38;;;;;;;18.60;10.90;;;-3.00;99.90;;;;;;5116342;28;20103;-64
2023/12/04 10:06:05;;;;;;;22.20;11.95;;;-3.00;99.90;;;;;;5116836;28;20457;-64
2023/12/04 10:08:31;;;;;;;23.75;13.18;;;-3.10;99.90;;;;;;5098263;28;20499;-64
2023/12/04 10:10:58;;;;;;;21.17;12.10;;;-2.70;99.90;;;;;;5116308;28;20032;-64
2023/12/04 10:13:24;;;;;;;25.33;12.18;;;-3.10;99.90;;;;;;5116475;28;20151;-65
2023/12/04 10:15:51;;;;;;;25.02;13.02;;;-3.10;99.90;;;;;;5116448;28;20476;-64
2023/12/04 10:18:30;;;;;;;27.23;13.85;;;-3.10;99.90;;;;;;5116316;28;20464;-64
2023/12/04 10:20:57;;;;;;;20.58;11.80;;;-2.90;99.90;;;;;;5116136;28;20487;-64
2023/12/04 10:23:37;;;;;;;22.55;11.82;;;-2.90;99.90;;;;;;5116170;28;20533;-64
2023/12/04 10:26:02;;;;;;;22.58;13.63;;;-2.70;99.90;;;;;;5099914;28;20028;-66
2023/12/04 10:28:29;;;;;;;24.27;13.10;;;-2.50;99.90;;;;;;5100350;28;20452;-65
2023/12/04 10:30:55;;;;;;;27.20;15.68;;;-2.30;99.90;;;;;;5118335;28;20028;-68
2023/12/04 10:33:25;;;;;;;20.52;12.00;;;-2.10;99.90;;;;;;5118693;28;20408;-64
2023/12/04 10:35:51;;;;;;;23.52;11.95;;;-2.00;99.90;;;;;;5117087;28;20020;-64
2023/12/04 10:38:18;;;;;;;21.33;12.70;;;-1.80;99.90;;;;;;5116218;28;20020;-64
2023/12/04 10:40:44;;;;;;;23.40;12.13;;;-1.60;99.90;;;;;;5115824;28;20048;-65
2023/12/04 10:43:22;;;;;;;20.27;11.52;;;-1.40;99.90;;;;;;5115859;28;20460;-64
2023/12/04 10:45:49;;;;;;;18.55;11.77;;;-1.30;99.90;;;;;;5114979;28;20020;-64
2023/12/04 10:48:16;;;;;;;16.33;10.80;;;-1.10;99.90;;;;;;5097483;28;20027;-64
2023/12/04 10:50:48;;;;;;;20.10;11.35;;;-0.80;99.90;;;;;;5115688;28;20034;-64
2023/12/04 10:53:15;;;;;;;18.85;10.80;;;-0.30;99.90;;;;;;5097641;28;20119;-64
2023/12/04 10:55:42;;;;;;;21.85;10.82;;;0.20;99.90;;;;;;5115924;28;20469;-64
2023/12/04 10:58:14;;;;;;;19.85;11.45;;;0.80;99.90;;;;;;5097617;28;20393;-65
2023/12/04 11:00:53;;;;;;;18.50;11.18;;;0.80;99.90;;;;;;5097782;28;20032;-64
2023/12/04 11:03:36;;;;;;;21.30;10.77;;;1.00;99.90;;;;;;5097237;28;20038;-64
2023/12/04 11:06:05;;;;;;;20.67;11.32;;;1.10;99.90;;;;;;5097461;28;20442;-64
2023/12/04 11:08:35;;;;;;;15.68;10.20;;;1.20;99.90;;;;;;5097086;28;20030;-64
2023/12/04 11:11:07;;;;;;;18.27;10.43;;;1.40;99.90;;;;;;5096915;28;20533;-64
2023/12/04 11:13:46;;;;;;;16.15;9.75;;;1.40;99.90;;;;;;5096891;28;20035;-64
2023/12/04 11:16:25;;;;;;;18.02;9.70;;;1.40;99.90;;;;;;5115251;28;20533;-64
2023/12/04 11:19:16;;;;;;;17.40;9.68;;;1.70;99.90;;;;;;5096967;28;20032;-64
2023/12/04 11:21:45;;;;;;;14.52;9.30;;;1.80;99.90;;;;;;5115028;28;20028;-64
2023/12/04 11:24:11;;;;;;;13.50;9.15;;;1.80;99.90;;;;;;5115321;28;20059;-65
2023/12/04 11:26:38;;;;;;;16.17;10.15;;;1.80;99.90;;;;;;5096827;28;20051;-64
2023/12/04 11:29:05;;;;;;;15.80;9.02;;;1.80;99.90;;;;;;5114722;28;20099;-65
2023/12/04 11:31:31;;;;;;;17.20;10.18;;;2.10;99.90;;;;;;5096422;28;20096;-65
2023/12/04 11:34:02;;;;;;;18.77;10.35;;;2.20;99.90;;;;;;5096789;28;20461;-64
2023/12/04 11:36:28;;;;;;;20.02;10.27;;;2.40;99.90;;;;;;5096606;28;20028;-65
2023/12/04 11:38:54;;;;;;;18.15;10.48;;;2.40;99.90;;;;;;5115068;28;20035;-65
2023/12/04 11:41:21;;;;;;;14.48;9.35;;;2.30;99.90;;;;;;5096325;28;20384;-65
2023/12/04 11:43:47;;;;;;;16.83;9.80;;;1.90;99.90;;;;;;5096612;28;20027;-65
2023/12/04 11:46:22;;;;;;;20.63;13.10;;;1.70;99.90;;;;;;5096580;28;20380;-64
2023/12/04 11:48:48;;;;;;;28.50;16.05;;;1.50;99.90;;;;;;5114937;28;20028;-65
2023/12/04 11:51:35;;;;;;;19.80;11.45;;;1.20;99.90;;;;;;5114961;28;20027;-64
2023/12/04 11:54:04;;;;;;;76.50;38.38;;;1.30;99.90;;;;;;5096519;28;20038;-64
2023/12/04 11:56:30;;;;;;;69.70;31.75;;;1.00;99.90;;;;;;5114445;28;20019;-64
2023/12/04 11:59:03;;;;;;;23.25;15.93;;;0.80;99.90;;;;;;5114752;28;20036;-64
2023/12/04 12:01:32;;;;;;;17.25;9.57;;;1.00;99.90;;;;;;5096343;28;20031;-64
2023/12/04 12:03:59;;;;;;;13.50;9.35;;;0.80;99.90;;;;;;5114367;28;20030;-64
2023/12/04 12:06:24;;;;;;;15.57;9.95;;;0.80;99.90;;;;;;5114369;28;20053;-64
2023/12/04 12:08:51;;;;;;;14.70;8.82;;;0.80;99.90;;;;;;5114026;28;20028;-64
2023/12/04 12:11:17;;;;;;;17.05;9.43;;;0.80;99.90;;;;;;5114328;28;20027;-64
2023/12/04 12:13:43;;;;;;;17.20;9.60;;;0.70;99.90;;;;;;5114032;28;20035;-64
2023/12/04 12:16:11;;;;;;;16.88;9.57;;;0.70;99.90;;;;;;5114246;28;20020;-64
2023/12/04 12:18:37;;;;;;;23.13;10.35;;;0.60;99.90;;;;;;5114605;28;20456;-63
2023/12/04 12:21:03;;;;;;;17.85;9.18;;;0.50;99.90;;;;;;5095736;28;20033;-63
2023/12/04 12:23:29;;;;;;;20.42;10.05;;;0.40;99.90;;;;;;5114279;28;20027;-63
2023/12/04 12:25:54;;;;;;;15.70;9.90;;;0.40;99.90;;;;;;5113918;28;20453;-63
2023/12/04 12:28:20;;;;;;;20.95;11.38;;;0.40;99.90;;;;;;5113978;28;20030;-64
2023/12/04 12:30:46;;;;;;;20.08;14.30;;;0.40;99.90;;;;;;5113828;28;20047;-64
2023/12/04 12:33:16;;;;;;;21.42;14.75;;;0.50;99.90;;;;;;5114307;28;20090;-64
2023/12/04 12:35:41;;;;;;;24.75;14.93;;;0.60;99.90;;;;;;5114051;28;20055;-64
2023/12/04 12:38:07;;;;;;;20.73;15.32;;;0.50;99.90;;;;;;5096177;28;20063;-64
2023/12/04 12:40:34;;;;;;;16.55;9.70;;;0.50;99.90;;;;;;5114211;28;20148;-64
2023/12/04 12:43:09;;;;;;;16.13;9.30;;;0.50;99.90;;;;;;5114039;28;20039;-63
2023/12/04 12:45:47;;;;;;;14.75;8.98;;;0.50;99.90;;;;;;5114132;28;20119;-64
2023/12/04 12:48:14;;;;;;;17.08;8.85;;;0.50;99.90;;;;;;5114464;28;20070;-64
2023/12/04 12:50:44;;;;;;;17.95;9.30;;;0.50;99.90;;;;;;5114071;28;20023;-64
2023/12/04 12:53:13;;;;;;;13.93;8.40;;;0.50;99.90;;;;;;5095842;28;20081;-64
2023/12/04 12:55:43;;;;;;;15.98;8.82;;;0.40;99.90;;;;;;5114524;28;20038;-64
2023/12/04 12:58:15;;;;;;;16.52;9.65;;;0.50;99.90;;;;;;5113906;28;20024;-63
2023/12/04 13:00:43;;;;;;;14.40;8.98;;;0.50;99.90;;;;;;5113914;28;20048;-64
2023/12/04 13:03:19;;;;;;;14.57;7.70;;;0.50;99.90;;;;;;5113533;28;20039;-63
2023/12/04 13:05:45;;;;;;;14.80;9.40;;;0.60;99.90;;;;;;5113827;28;20032;-64
2023/12/04 13:08:11;;;;;;;21.45;9.10;;;0.60;99.90;;;;;;5096843;28;20080;-64
2023/12/04 13:10:37;;;;;;;16.48;8.30;;;0.60;99.90;;;;;;5118179;28;20035;-64
2023/12/04 13:13:04;;;;;;;14.43;8.60;;;0.60;99.90;;;;;;5118115;28;20156;-63
2023/12/04 13:15:29;;;;;;;14.35;8.25;;;0.70;99.90;;;;;;5117687;28;20023;-64
2023/12/04 13:17:56;;;;;;;12.32;8.40;;;0.70;99.90;;;;;;5117519;28;20441;-64
2023/12/04 13:20:23;;;;;;;14.25;8.27;;;0.70;99.90;;;;;;5117638;28;20027;-64
2023/12/04 13:22:49;;;;;;;15.63;8.63;;;0.90;99.90;;;;;;5117739;28;20019;-64
2023/12/04 13:25:15;;;;;;;18.00;8.88;;;0.60;99.90;;;;;;5117419;28;20023;-64
2023/12/04 13:27:40;;;;;;;15.65;9.00;;;0.60;99.90;;;;;;5117323;28;20456;-64
2023/12/04 13:30:10;;;;;;;14.50;8.13;;;0.60;99.90;;;;;;5117079;28;20077;-64
2023/12/04 13:32:37;;;;;;;15.98;8.63;;;0.60;99.90;;;;;;5116802;28;20044;-64
2023/12/04 13:35:11;;;;;;;14.38;7.30;;;0.60;99.90;;;;;;5117182;28;20032;-64
2023/12/04 13:37:38;;;;;;;16.67;7.65;;;0.60;99.90;;;;;;5117176;28;20019;-64
2023/12/04 13:40:12;;;;;;;23.42;8.30;;;0.50;99.90;;;;;;5117163;28;20072;-64
2023/12/04 13:45:22;;;;;;;13.05;6.72;;;0.50;99.90;;;;;;5116885;28;20042;-64
2023/12/04 13:47:48;;;;;;;8.75;5.78;;;0.50;99.90;;;;;;5116963;28;20024;-64
2023/12/04 13:50:15;;;;;;;11.48;6.47;;;0.50;99.90;;;;;;5098704;28;20035;-63
2023/12/04 13:52:42;;;;;;;13.23;6.75;;;0.60;99.90;;;;;;5116606;28;20027;-64
2023/12/04 13:55:19;;;;;;;11.63;6.90;;;0.50;99.90;;;;;;5116945;28;20024;-64
2023/12/04 14:00:20;;;;;;;13.27;6.25;;;0.50;99.90;;;;;;5116629;28;20034;-63
2023/12/04 14:02:46;;;;;;;12.73;7.18;;;0.40;99.90;;;;;;5116339;28;20379;-63
2023/12/04 14:05:15;;;;;;;14.90;7.93;;;0.40;99.90;;;;;;5116305;28;20032;-63